Time;durP1;ratioP1;P1;durP2;ratioP2;P2;SDS_P1;SDS_P2;PMS_P1;PMS_P2;Temp;Humidity;BMP_temperature;BMP_pressure;BME280_temperature;BME280_humidity;BME280_pressure;Samples;Min_cycle;Max_cycle;Signal;HPM_P1;HPM_P2
2023/03/06 00:02:23;;;;;;;28.25;6.78;;;;;;;;;;5011905;28;20061;-38
2023/03/06 00:04:52;;;;;;;33.60;6.38;;;;;;;;;;5010977;28;20037;-39
2023/03/06 00:07:19;;;;;;;22.02;6.07;;;;;;;;;;5011199;28;20220;-39
2023/03/06 00:09:46;;;;;;;31.15;6.45;;;;;;;;;;4993784;28;20040;-38
2023/03/06 00:12:13;;;;;;;26.05;5.93;;;;;;;;;;5010888;28;20038;-38
2023/03/06 00:14:40;;;;;;;38.58;7.05;;;;;;;;;;5008347;28;20042;-39
2023/03/06 00:17:07;;;;;;;37.88;7.75;;;;;;;;;;5010119;28;20111;-38
2023/03/06 00:19:34;;;;;;;39.13;6.80;;;;;;;;;;5010416;28;20120;-38
2023/03/06 00:22:17;;;;;;;43.40;7.03;;;;;;;;;;5065020;27;20997;-39
2023/03/06 00:24:45;;;;;;;35.28;6.80;;;;;;;;;;5063956;28;20052;-37
2023/03/06 00:27:12;;;;;;;39.85;6.88;;;;;;;;;;5062969;28;20722;-38
2023/03/06 00:29:39;;;;;;;38.70;6.68;;;;;;;;;;5063999;28;20032;-38
2023/03/06 00:32:07;;;;;;;38.38;6.25;;;;;;;;;;5064595;28;20104;-37
2023/03/06 00:34:33;;;;;;;37.13;7.38;;;;;;;;;;5064586;28;20470;-38
2023/03/06 00:37:00;;;;;;;21.85;5.95;;;;;;;;;;5059942;28;20025;-38
2023/03/06 00:39:27;;;;;;;36.30;6.45;;;;;;;;;;5062343;28;20029;-38
2023/03/06 00:41:54;;;;;;;28.95;7.13;;;;;;;;;;5064788;28;20150;-37
2023/03/06 00:44:21;;;;;;;25.67;6.20;;;;;;;;;;5062266;28;20107;-37
2023/03/06 00:46:48;;;;;;;32.42;6.47;;;;;;;;;;5065070;28;20627;-39
2023/03/06 00:49:15;;;;;;;27.05;6.25;;;;;;;;;;5064008;28;20624;-39
2023/03/06 00:51:42;;;;;;;25.75;6.60;;;;;;;;;;5065311;28;20040;-39
2023/03/06 00:54:09;;;;;;;35.47;7.28;;;;;;;;;;5065293;28;20067;-39
2023/03/06 00:56:36;;;;;;;23.27;6.13;;;;;;;;;;5064802;28;20035;-39
2023/03/06 00:59:03;;;;;;;23.02;6.05;;;;;;;;;;5060986;28;20386;-39
2023/03/06 01:01:30;;;;;;;21.40;6.00;;;;;;;;;;5064931;28;20078;-37
2023/03/06 01:03:57;;;;;;;31.92;5.85;;;;;;;;;;5065149;28;20051;-38
2023/03/06 01:06:24;;;;;;;23.10;6.35;;;;;;;;;;5062942;28;20052;-39
2023/03/06 01:08:51;;;;;;;23.60;5.82;;;;;;;;;;5063564;28;20036;-37
2023/03/06 01:11:18;;;;;;;23.20;6.53;;;;;;;;;;5056236;28;20074;-39
2023/03/06 01:13:45;;;;;;;30.17;6.18;;;;;;;;;;5062499;28;20025;-37
2023/03/06 01:16:14;;;;;;;29.50;6.28;;;;;;;;;;5064129;28;20025;-38
2023/03/06 01:18:41;;;;;;;26.88;6.45;;;;;;;;;;5065617;28;20497;-37
2023/03/06 01:21:08;;;;;;;19.20;5.93;;;;;;;;;;5063684;28;20052;-39
2023/03/06 01:23:35;;;;;;;28.25;6.10;;;;;;;;;;5062424;28;20052;-38
2023/03/06 01:26:02;;;;;;;25.48;7.03;;;;;;;;;;5064406;28;20021;-37
2023/03/06 01:28:29;;;;;;;33.22;8.93;;;;;;;;;;5064213;28;20436;-39
2023/03/06 01:30:57;;;;;;;37.90;10.57;;;;;;;;;;5062156;28;20029;-37
2023/03/06 01:33:24;;;;;;;41.42;10.23;;;;;;;;;;5049551;28;20047;-38
2023/03/06 01:35:51;;;;;;;33.28;10.07;;;;;;;;;;5047234;28;20769;-38
2023/03/06 01:38:18;;;;;;;34.67;8.95;;;;;;;;;;5052436;28;20041;-37
2023/03/06 01:40:45;;;;;;;24.35;8.70;;;;;;;;;;5053136;28;20490;-37
2023/03/06 01:43:27;;;;;;;35.40;8.25;;;;;;;;;;5032767;28;20068;-37
2023/03/06 01:46:12;;;;;;;31.13;7.50;;;;;;;;;;5053065;28;20117;-37
2023/03/06 01:48:39;;;;;;;30.42;7.95;;;;;;;;;;5053254;28;20505;-37
2023/03/06 01:51:06;;;;;;;32.65;8.05;;;;;;;;;;5052142;28;20510;-37
2023/03/06 01:53:33;;;;;;;32.42;7.65;;;;;;;;;;5052106;28;20083;-35
2023/03/06 01:56:01;;;;;;;43.65;7.18;;;;;;;;;;5049895;28;20463;-38
2023/03/06 01:58:28;;;;;;;38.10;6.65;;;;;;;;;;5051380;28;20386;-35
2023/03/06 02:00:55;;;;;;;37.80;6.50;;;;;;;;;;5052265;28;20099;-34
2023/03/06 02:03:24;;;;;;;32.83;5.32;;;;;;;;;;5051708;28;20391;-35
2023/03/06 02:05:51;;;;;;;30.33;5.22;;;;;;;;;;5049536;28;20036;-35
2023/03/06 02:08:19;;;;;;;28.15;4.13;;;;;;;;;;5051520;28;20041;-38
2023/03/06 02:11:10;;;;;;;36.20;3.95;;;;;;;;;;5050215;28;20056;-35
2023/03/06 02:13:38;;;;;;;30.45;4.10;;;;;;;;;;5049622;28;20126;-35
2023/03/06 02:16:05;;;;;;;29.73;4.03;;;;;;;;;;5051612;28;20037;-37
2023/03/06 02:18:33;;;;;;;33.95;4.32;;;;;;;;;;5051982;28;20897;-36
2023/03/06 02:21:02;;;;;;;34.70;4.28;;;;;;;;;;5051945;28;20049;-37
2023/03/06 02:23:47;;;;;;;38.17;4.55;;;;;;;;;;5052461;28;20033;-38
2023/03/06 02:26:15;;;;;;;37.45;4.22;;;;;;;;;;5052624;28;20040;-37
2023/03/06 02:28:42;;;;;;;44.72;4.03;;;;;;;;;;5052733;28;20029;-37
2023/03/06 02:31:18;;;;;;;30.77;3.45;;;;;;;;;;5052479;28;20057;-37
2023/03/06 02:33:45;;;;;;;30.92;3.28;;;;;;;;;;5052605;28;20025;-37
2023/03/06 02:36:15;;;;;;;27.02;3.70;;;;;;;;;;5052380;28;20112;-37
2023/03/06 02:38:47;;;;;;;23.45;3.30;;;;;;;;;;5052518;28;20103;-37
2023/03/06 02:41:14;;;;;;;20.95;2.70;;;;;;;;;;5052292;28;20040;-37
2023/03/06 02:43:43;;;;;;;15.65;2.65;;;;;;;;;;5051232;28;20542;-37
2023/03/06 02:46:10;;;;;;;23.73;3.00;;;;;;;;;;5052076;28;20037;-39
2023/03/06 02:48:37;;;;;;;22.15;2.30;;;;;;;;;;5052424;28;20360;-37
2023/03/06 02:51:04;;;;;;;21.88;3.25;;;;;;;;;;5052263;28;20036;-37
2023/03/06 02:53:31;;;;;;;17.30;2.42;;;;;;;;;;5052135;28;20437;-37
2023/03/06 02:55:58;;;;;;;16.35;2.30;;;;;;;;;;5051783;28;20414;-38
2023/03/06 02:58:25;;;;;;;18.48;2.00;;;;;;;;;;5051986;28;20411;-37
2023/03/06 03:00:52;;;;;;;13.00;2.22;;;;;;;;;;5051938;28;20036;-38
2023/03/06 03:03:19;;;;;;;16.52;1.80;;;;;;;;;;5051795;28;20055;-37
2023/03/06 03:05:46;;;;;;;16.25;2.22;;;;;;;;;;5051945;28;20025;-37
2023/03/06 03:08:13;;;;;;;16.33;2.20;;;;;;;;;;5051921;28;20025;-37
2023/03/06 03:10:40;;;;;;;17.08;2.20;;;;;;;;;;5051758;28;20115;-37
2023/03/06 03:13:07;;;;;;;9.80;1.77;;;;;;;;;;5052007;28;20022;-37
2023/03/06 03:15:34;;;;;;;18.23;2.33;;;;;;;;;;5051739;28;20021;-37
2023/03/06 03:18:01;;;;;;;10.43;1.85;;;;;;;;;;5051754;28;20139;-37
2023/03/06 03:20:28;;;;;;;13.52;1.90;;;;;;;;;;5051536;28;20518;-37
2023/03/06 03:22:55;;;;;;;20.48;2.40;;;;;;;;;;5051675;28;20033;-37
2023/03/06 03:25:23;;;;;;;14.98;2.22;;;;;;;;;;5051467;28;20025;-38
2023/03/06 03:27:50;;;;;;;19.00;2.42;;;;;;;;;;5051564;28;20052;-37
2023/03/06 03:30:17;;;;;;;16.95;2.28;;;;;;;;;;5051537;28;20036;-37
2023/03/06 03:32:44;;;;;;;25.50;2.72;;;;;;;;;;5051460;28;20043;-37
2023/03/06 03:35:11;;;;;;;19.30;2.00;;;;;;;;;;5051313;28;20029;-38
2023/03/06 03:37:38;;;;;;;14.05;2.00;;;;;;;;;;5051342;28;20036;-37
2023/03/06 03:40:06;;;;;;;15.38;2.50;;;;;;;;;;5051386;28;20032;-38
2023/03/06 03:42:33;;;;;;;18.45;2.53;;;;;;;;;;5051286;28;20031;-37
2023/03/06 03:45:00;;;;;;;12.02;2.20;;;;;;;;;;5051142;28;20437;-37
2023/03/06 03:47:27;;;;;;;13.40;2.05;;;;;;;;;;5051279;28;20722;-37
2023/03/06 03:49:54;;;;;;;18.85;2.17;;;;;;;;;;5051149;28;20025;-37
2023/03/06 03:52:22;;;;;;;16.50;1.75;;;;;;;;;;5051201;28;20091;-37
2023/03/06 03:54:49;;;;;;;13.35;1.77;;;;;;;;;;5050837;28;20540;-37
2023/03/06 03:57:16;;;;;;;13.25;1.73;;;;;;;;;;5051256;28;20025;-37
2023/03/06 03:59:43;;;;;;;15.32;1.90;;;;;;;;;;5051105;28;20028;-37
2023/03/06 04:02:10;;;;;;;14.13;1.70;;;;;;;;;;5051001;28;20106;-37
2023/03/06 04:04:37;;;;;;;21.27;2.50;;;;;;;;;;5050942;28;20025;-37
2023/03/06 04:07:04;;;;;;;11.02;2.28;;;;;;;;;;5051045;28;20417;-37
2023/03/06 04:09:31;;;;;;;18.00;1.77;;;;;;;;;;5050946;28;20032;-37
2023/03/06 04:11:58;;;;;;;18.45;2.00;;;;;;;;;;5050939;28;20383;-37
2023/03/06 04:14:25;;;;;;;13.10;1.70;;;;;;;;;;5050840;28;20039;-37
2023/03/06 04:16:52;;;;;;;12.63;1.92;;;;;;;;;;5050973;28;20040;-37
2023/03/06 04:19:19;;;;;;;7.72;1.60;;;;;;;;;;5050861;28;20025;-36
2023/03/06 04:21:46;;;;;;;11.07;1.75;;;;;;;;;;5050617;28;20052;-37
2023/03/06 04:24:13;;;;;;;16.67;1.77;;;;;;;;;;5050632;28;20021;-37
2023/03/06 04:26:40;;;;;;;16.65;2.13;;;;;;;;;;5050821;28;20025;-37
2023/03/06 04:29:07;;;;;;;15.77;2.30;;;;;;;;;;5050833;28;20514;-37
2023/03/06 04:31:34;;;;;;;17.92;2.05;;;;;;;;;;5050852;28;20033;-37
2023/03/06 04:34:01;;;;;;;9.38;1.80;;;;;;;;;;5050617;28;20055;-37
2023/03/06 04:36:34;;;;;;;14.18;1.70;;;;;;;;;;5050737;28;20033;-37
2023/03/06 04:39:02;;;;;;;14.85;2.08;;;;;;;;;;5050724;28;20036;-37
2023/03/06 04:41:29;;;;;;;14.65;1.58;;;;;;;;;;5050568;28;20037;-37
2023/03/06 04:43:56;;;;;;;18.20;1.85;;;;;;;;;;5050871;28;20037;-37
2023/03/06 04:46:23;;;;;;;23.13;1.70;;;;;;;;;;5050626;28;20550;-37
2023/03/06 04:48:50;;;;;;;9.73;2.00;;;;;;;;;;5050612;28;20044;-37
2023/03/06 04:51:17;;;;;;;20.67;2.03;;;;;;;;;;5050510;28;20068;-36
2023/03/06 04:53:44;;;;;;;9.82;1.67;;;;;;;;;;5050508;28;20111;-37
2023/03/06 04:56:11;;;;;;;12.45;1.48;;;;;;;;;;5050530;28;20048;-37
2023/03/06 04:58:38;;;;;;;16.35;1.70;;;;;;;;;;5050494;28;20037;-37
2023/03/06 05:01:05;;;;;;;8.55;1.83;;;;;;;;;;5050420;28;20505;-36
2023/03/06 05:03:32;;;;;;;8.30;1.42;;;;;;;;;;5050296;28;20083;-37
2023/03/06 05:05:59;;;;;;;13.68;1.38;;;;;;;;;;5050449;28;20017;-37
2023/03/06 05:08:25;;;;;;;9.82;1.63;;;;;;;;;;5053052;28;20474;-38
2023/03/06 05:10:56;;;;;;;10.10;1.75;;;;;;;;;;5054197;28;20124;-37
2023/03/06 05:13:23;;;;;;;10.93;1.58;;;;;;;;;;5054056;28;20075;-37
2023/03/06 05:15:50;;;;;;;12.45;1.60;;;;;;;;;;5054018;28;20083;-37
2023/03/06 05:18:18;;;;;;;11.82;1.67;;;;;;;;;;5054114;28;20036;-37
2023/03/06 05:20:45;;;;;;;14.23;1.60;;;;;;;;;;5053845;28;20051;-37
2023/03/06 05:23:12;;;;;;;12.07;1.33;;;;;;;;;;5054111;28;20028;-37
2023/03/06 05:25:40;;;;;;;8.43;1.42;;;;;;;;;;5053857;28;20079;-37
2023/03/06 05:28:07;;;;;;;7.15;1.40;;;;;;;;;;5053817;28;20057;-37
2023/03/06 05:30:34;;;;;;;5.43;1.75;;;;;;;;;;5053837;28;20037;-37
2023/03/06 05:33:01;;;;;;;10.70;1.60;;;;;;;;;;5053838;28;20402;-37
2023/03/06 05:35:28;;;;;;;11.55;1.70;;;;;;;;;;5053649;28;20020;-37
2023/03/06 05:37:56;;;;;;;11.23;2.22;;;;;;;;;;5053699;28;20021;-37
2023/03/06 05:40:23;;;;;;;35.25;2.30;;;;;;;;;;5053575;28;20033;-37
2023/03/06 05:42:50;;;;;;;239.57;12.80;;;;;;;;;;5053430;28;20029;-37
2023/03/06 05:45:17;;;;;;;100.68;7.20;;;;;;;;;;5053440;28;20040;-37
2023/03/06 05:47:44;;;;;;;62.70;4.80;;;;;;;;;;5053546;28;20028;-37
2023/03/06 05:50:12;;;;;;;34.65;3.58;;;;;;;;;;5053520;28;20107;-37
2023/03/06 05:52:39;;;;;;;19.77;2.30;;;;;;;;;;5053354;28;20390;-37
2023/03/06 05:55:07;;;;;;;10.50;1.77;;;;;;;;;;5053284;28;20060;-37
2023/03/06 05:57:34;;;;;;;39.67;4.60;;;;;;;;;;5053448;28;20029;-37
2023/03/06 06:00:02;;;;;;;26.30;2.20;;;;;;;;;;5053244;28;20036;-36
2023/03/06 06:02:29;;;;;;;10.75;1.75;;;;;;;;;;5036885;28;20052;-36
2023/03/06 06:04:56;;;;;;;13.70;1.98;;;;;;;;;;5032998;28;20029;-36
2023/03/06 06:07:23;;;;;;;27.05;2.47;;;;;;;;;;5033275;28;20708;-36
2023/03/06 06:09:53;;;;;;;26.00;2.47;;;;;;;;;;5033241;28;20033;-36
2023/03/06 06:12:20;;;;;;;15.70;2.15;;;;;;;;;;5033448;28;20428;-36
2023/03/06 06:14:47;;;;;;;20.33;2.03;;;;;;;;;;5032927;28;20151;-37
2023/03/06 06:17:15;;;;;;;106.97;7.80;;;;;;;;;;5033058;28;20064;-36
2023/03/06 06:19:42;;;;;;;145.55;8.93;;;;;;;;;;5032893;28;20480;-36
2023/03/06 06:22:09;;;;;;;204.38;14.80;;;;;;;;;;5032856;28;20049;-34
2023/03/06 06:24:36;;;;;;;511.63;30.75;;;;;;;;;;5032932;28;20487;-33
2023/03/06 06:27:03;;;;;;;335.67;24.27;;;;;;;;;;5032861;28;20044;-34
2023/03/06 06:29:30;;;;;;;722.63;54.15;;;;;;;;;;5032859;28;20487;-36
2023/03/06 06:31:57;;;;;;;580.65;42.05;;;;;;;;;;5032953;28;20037;-36
2023/03/06 06:34:24;;;;;;;450.25;39.50;;;;;;;;;;5032720;28;20514;-36
2023/03/06 06:36:53;;;;;;;367.33;30.80;;;;;;;;;;5032800;28;20029;-36
2023/03/06 06:39:21;;;;;;;252.77;21.65;;;;;;;;;;5032606;28;20037;-36
2023/03/06 06:41:50;;;;;;;243.02;23.27;;;;;;;;;;5032594;28;20037;-36
2023/03/06 06:44:18;;;;;;;205.73;20.95;;;;;;;;;;5032443;28;20476;-36
2023/03/06 06:46:45;;;;;;;160.75;16.20;;;;;;;;;;5032614;28;20043;-36
2023/03/06 06:49:12;;;;;;;141.63;15.23;;;;;;;;;;5032397;28;20083;-36
2023/03/06 06:51:39;;;;;;;98.78;10.13;;;;;;;;;;5032461;28;20541;-36
2023/03/06 06:54:06;;;;;;;121.30;11.80;;;;;;;;;;5032365;28;20033;-36
2023/03/06 06:56:33;;;;;;;90.57;10.35;;;;;;;;;;5032250;28;20100;-36
2023/03/06 06:59:00;;;;;;;87.45;9.95;;;;;;;;;;5032259;28;20037;-36
2023/03/06 07:01:28;;;;;;;100.78;10.98;;;;;;;;;;5165406;23;20852;-39
2023/03/06 07:03:55;;;;;;;92.32;9.38;;;;;;;;;;5025302;28;20049;-40
2023/03/06 07:06:22;;;;;;;85.53;8.98;;;;;;;;;;5031790;28;20036;-41
2023/03/06 07:08:49;;;;;;;75.65;9.25;;;;;;;;;;5031736;28;20124;-42
2023/03/06 07:11:17;;;;;;;84.28;9.48;;;;;;;;;;5032168;28;20029;-40
2023/03/06 07:13:45;;;;;;;71.03;8.85;;;;;;;;;;5032040;28;20017;-41
2023/03/06 07:16:12;;;;;;;63.08;8.70;;;;;;;;;;5031952;28;20029;-41
2023/03/06 07:18:39;;;;;;;60.90;7.70;;;;;;;;;;5032012;28;20534;-41
2023/03/06 07:21:06;;;;;;;56.13;7.75;;;;;;;;;;5031792;28;20041;-41
2023/03/06 07:23:33;;;;;;;76.25;8.52;;;;;;;;;;5031848;28;20021;-41
2023/03/06 07:26:00;;;;;;;59.20;8.75;;;;;;;;;;5031807;28;20100;-41
2023/03/06 07:28:27;;;;;;;59.55;8.23;;;;;;;;;;5031698;28;20030;-41
2023/03/06 07:30:54;;;;;;;53.30;7.65;;;;;;;;;;5031290;28;20031;-41
2023/03/06 07:33:21;;;;;;;58.53;7.88;;;;;;;;;;5031622;28;20036;-41
2023/03/06 07:35:48;;;;;;;49.53;6.28;;;;;;;;;;5031641;28;20022;-41
2023/03/06 07:38:15;;;;;;;51.20;7.40;;;;;;;;;;5031602;28;20025;-41
2023/03/06 07:40:42;;;;;;;45.45;6.22;;;;;;;;;;5031569;28;20033;-41
2023/03/06 07:43:11;;;;;;;49.92;6.57;;;;;;;;;;5031429;28;20029;-41
2023/03/06 07:45:38;;;;;;;44.47;6.15;;;;;;;;;;5030958;28;20029;-41
2023/03/06 07:48:05;;;;;;;49.45;6.63;;;;;;;;;;5030767;28;20483;-41
2023/03/06 07:50:32;;;;;;;43.30;5.70;;;;;;;;;;5030621;28;20033;-41
2023/03/06 07:52:59;;;;;;;45.70;5.85;;;;;;;;;;5030709;28;20030;-41
2023/03/06 07:55:26;;;;;;;31.05;5.13;;;;;;;;;;5031139;28;20025;-41
2023/03/06 07:57:52;;;;;;;39.25;5.07;;;;;;;;;;5031354;28;20036;-41
2023/03/06 08:00:20;;;;;;;40.03;6.07;;;;;;;;;;5031255;28;20025;-40
2023/03/06 08:02:48;;;;;;;32.95;4.90;;;;;;;;;;5031152;28;20502;-41
2023/03/06 08:05:15;;;;;;;29.65;4.55;;;;;;;;;;5031122;28;20021;-41
2023/03/06 08:07:45;;;;;;;32.85;4.43;;;;;;;;;;5031125;28;20090;-41
2023/03/06 08:10:14;;;;;;;33.97;4.70;;;;;;;;;;5031012;28;20102;-40
2023/03/06 08:12:41;;;;;;;28.33;3.80;;;;;;;;;;5031044;28;20028;-41
2023/03/06 08:15:09;;;;;;;31.10;4.32;;;;;;;;;;5031122;28;20025;-41
2023/03/06 08:17:36;;;;;;;25.58;3.85;;;;;;;;;;5031129;28;20037;-41
2023/03/06 08:20:03;;;;;;;25.52;4.10;;;;;;;;;;5030872;28;20028;-41
2023/03/06 08:22:30;;;;;;;29.55;4.35;;;;;;;;;;5030955;28;20060;-42
2023/03/06 08:24:57;;;;;;;29.48;4.43;;;;;;;;;;5030974;28;20028;-41
2023/03/06 08:27:24;;;;;;;27.13;4.78;;;;;;;;;;5030983;28;20103;-41
2023/03/06 08:29:51;;;;;;;27.20;4.18;;;;;;;;;;5030893;28;20024;-41
2023/03/06 08:32:18;;;;;;;24.55;3.80;;;;;;;;;;5030982;28;20030;-41
2023/03/06 08:34:45;;;;;;;28.63;4.30;;;;;;;;;;5030915;28;20486;-42
2023/03/06 08:37:12;;;;;;;25.15;3.72;;;;;;;;;;5030921;28;20110;-41
2023/03/06 08:39:39;;;;;;;22.17;3.72;;;;;;;;;;5030855;28;20049;-41
2023/03/06 08:42:06;;;;;;;25.27;4.20;;;;;;;;;;5031240;28;20101;-41
2023/03/06 08:44:33;;;;;;;32.20;3.95;;;;;;;;;;5034817;28;20021;-40
2023/03/06 08:47:00;;;;;;;35.67;4.85;;;;;;;;;;5034768;28;20036;-41
2023/03/06 08:49:27;;;;;;;17.95;3.72;;;;;;;;;;5034736;28;20028;-41
2023/03/06 08:51:54;;;;;;;19.33;3.22;;;;;;;;;;5034217;28;20040;-41
2023/03/06 08:54:21;;;;;;;24.23;4.05;;;;;;;;;;5033994;28;20508;-39
2023/03/06 08:56:48;;;;;;;18.40;3.70;;;;;;;;;;5034163;28;20049;-39
2023/03/06 08:59:15;;;;;;;21.20;3.38;;;;;;;;;;5034538;28;20383;-39
2023/03/06 09:01:42;;;;;;;22.15;4.03;;;;;;;;;;5034395;28;20108;-39
2023/03/06 09:04:10;;;;;;;20.63;3.65;;;;;;;;;;5034303;28;20088;-39
2023/03/06 09:06:39;;;;;;;17.05;3.22;;;;;;;;;;5034396;28;20028;-39
2023/03/06 09:09:06;;;;;;;17.90;3.05;;;;;;;;;;5034355;28;20033;-39
2023/03/06 09:11:33;;;;;;;22.08;3.10;;;;;;;;;;5034357;28;20084;-39
2023/03/06 09:14:00;;;;;;;18.02;2.78;;;;;;;;;;5034267;28;20034;-39
2023/03/06 09:16:27;;;;;;;16.08;3.08;;;;;;;;;;5034259;28;20082;-39
2023/03/06 09:18:54;;;;;;;15.48;3.00;;;;;;;;;;5034289;28;20395;-40
2023/03/06 09:21:22;;;;;;;18.60;3.38;;;;;;;;;;5048326;28;20029;-39
2023/03/06 09:23:49;;;;;;;18.38;3.25;;;;;;;;;;5034086;28;20079;-39
2023/03/06 09:26:16;;;;;;;15.40;3.00;;;;;;;;;;5033949;28;20104;-38
2023/03/06 09:28:44;;;;;;;18.67;2.92;;;;;;;;;;5032804;28;20069;-38
2023/03/06 09:31:13;;;;;;;12.93;2.13;;;;;;;;;;5031956;28;20035;-38
2023/03/06 09:33:40;;;;;;;11.38;1.50;;;;;;;;;;5016378;28;20132;-38
2023/03/06 09:36:07;;;;;;;14.40;1.83;;;;;;;;;;5026505;28;20113;-40
2023/03/06 09:38:34;;;;;;;11.52;1.92;;;;;;;;;;5037322;28;20030;-38
2023/03/06 09:41:04;;;;;;;14.98;2.70;;;;;;;;;;5016254;28;20110;-38
2023/03/06 09:43:34;;;;;;;17.60;2.85;;;;;;;;;;5023582;28;20053;-39
2023/03/06 09:46:01;;;;;;;13.35;2.00;;;;;;;;;;5025830;28;20025;-41
2023/03/06 09:48:40;;;;;;;10.07;1.90;;;;;;;;;;5016411;28;20545;-37
2023/03/06 09:51:15;;;;;;;14.25;2.08;;;;;;;;;;5013940;28;20029;-39
2023/03/06 09:53:45;;;;;;;11.85;1.98;;;;;;;;;;5014024;28;20052;-40
2023/03/06 09:56:16;;;;;;;10.07;2.00;;;;;;;;;;5014746;28;20084;-41
2023/03/06 09:58:48;;;;;;;13.20;1.70;;;;;;;;;;5023277;28;20360;-39
2023/03/06 10:01:20;;;;;;;9.80;1.60;;;;;;;;;;5029697;28;20037;-41
2023/03/06 10:03:56;;;;;;;14.35;1.67;;;;;;;;;;5023765;28;20049;-40
2023/03/06 10:06:41;;;;;;;13.55;2.33;;;;;;;;;;5021775;28;20018;-38
2023/03/06 10:09:14;;;;;;;7.50;1.63;;;;;;;;;;5030514;28;20087;-38
2023/03/06 10:11:47;;;;;;;14.00;1.77;;;;;;;;;;5021779;28;20025;-40
2023/03/06 10:14:14;;;;;;;11.82;1.85;;;;;;;;;;5027148;28;20033;-39
2023/03/06 10:16:41;;;;;;;12.35;1.80;;;;;;;;;;5029574;28;20060;-38
2023/03/06 10:19:15;;;;;;;9.20;1.77;;;;;;;;;;5023688;28;20037;-40
2023/03/06 10:22:00;;;;;;;6.75;1.60;;;;;;;;;;5030281;28;20053;-41
2023/03/06 10:24:36;;;;;;;7.95;1.42;;;;;;;;;;5031736;28;20028;-43
2023/03/06 10:27:13;;;;;;;12.05;1.70;;;;;;;;;;5030763;28;20030;-41
2023/03/06 10:29:47;;;;;;;9.23;1.75;;;;;;;;;;5025630;28;20486;-40
2023/03/06 10:32:25;;;;;;;14.05;1.80;;;;;;;;;;5023153;28;20036;-40
2023/03/06 10:34:53;;;;;;;13.40;1.80;;;;;;;;;;5021846;28;20565;-38
2023/03/06 10:37:21;;;;;;;13.82;1.60;;;;;;;;;;5021792;28;20033;-38
2023/03/06 10:40:14;;;;;;;8.68;1.50;;;;;;;;;;5020605;28;20032;-38
2023/03/06 10:42:41;;;;;;;12.45;1.83;;;;;;;;;;5011421;28;20081;-40
2023/03/06 10:45:11;;;;;;;11.48;1.63;;;;;;;;;;5012921;28;20030;-42
2023/03/06 10:47:39;;;;;;;13.18;1.70;;;;;;;;;;5012867;28;20034;-39
2023/03/06 10:50:25;;;;;;;8.73;1.75;;;;;;;;;;5012626;28;20160;-39
2023/03/06 10:53:00;;;;;;;9.45;1.75;;;;;;;;;;5012651;28;20021;-39
2023/03/06 10:55:31;;;;;;;13.00;1.45;;;;;;;;;;5012722;28;20041;-40
2023/03/06 10:58:16;;;;;;;6.85;1.35;;;;;;;;;;5012706;28;20018;-40
2023/03/06 11:00:43;;;;;;;9.60;1.52;;;;;;;;;;5012459;28;20040;-39
2023/03/06 11:03:18;;;;;;;10.57;1.40;;;;;;;;;;5012365;28;20407;-39
2023/03/06 11:05:55;;;;;;;12.77;1.70;;;;;;;;;;5014832;28;20079;-38
2023/03/06 11:08:22;;;;;;;10.32;1.65;;;;;;;;;;5020717;28;20487;-38
2023/03/06 11:10:57;;;;;;;9.43;1.70;;;;;;;;;;5012257;28;20028;-38
2023/03/06 11:13:25;;;;;;;9.75;1.60;;;;;;;;;;5012227;28;20101;-38
2023/03/06 11:15:56;;;;;;;14.02;1.77;;;;;;;;;;5012159;28;20030;-43
2023/03/06 11:18:29;;;;;;;12.10;1.83;;;;;;;;;;5012329;28;20459;-42
2023/03/06 11:20:57;;;;;;;9.15;1.80;;;;;;;;;;5012021;28;20049;-39
2023/03/06 11:23:35;;;;;;;9.48;2.08;;;;;;;;;;5012170;28;20080;-39
2023/03/06 11:26:19;;;;;;;9.93;1.70;;;;;;;;;;5012161;28;20033;-39
2023/03/06 11:28:48;;;;;;;11.68;1.50;;;;;;;;;;5012002;28;20537;-39
2023/03/06 11:31:18;;;;;;;14.48;1.63;;;;;;;;;;5011974;28;20084;-39
2023/03/06 11:33:51;;;;;;;13.20;1.42;;;;;;;;;;5012085;28;20026;-39
2023/03/06 11:36:38;;;;;;;11.57;1.50;;;;;;;;;;5012061;28;20574;-39
2023/03/06 11:39:16;;;;;;;12.50;1.50;;;;;;;;;;5004950;28;20037;-40
2023/03/06 11:41:50;;;;;;;12.25;2.05;;;;;;;;;;5011719;28;20040;-39
2023/03/06 11:44:23;;;;;;;16.10;2.00;;;;;;;;;;5011884;28;20025;-39
2023/03/06 11:46:53;;;;;;;11.65;1.70;;;;;;;;;;5011723;28;20038;-39
2023/03/06 11:49:26;;;;;;;17.00;2.00;;;;;;;;;;5011679;28;20028;-39
2023/03/06 11:51:55;;;;;;;10.07;1.70;;;;;;;;;;5011647;28;20037;-39
2023/03/06 11:54:22;;;;;;;15.95;2.28;;;;;;;;;;5011654;28;20583;-39
2023/03/06 11:57:01;;;;;;;22.90;2.58;;;;;;;;;;5011717;28;20097;-43
2023/03/06 11:59:34;;;;;;;14.30;2.13;;;;;;;;;;5011639;28;20108;-39
2023/03/06 12:02:13;;;;;;;10.45;2.03;;;;;;;;;;5011137;28;20034;-39
2023/03/06 12:04:49;;;;;;;12.90;2.45;;;;;;;;;;5011776;28;20389;-39
2023/03/06 12:07:16;;;;;;;17.48;2.35;;;;;;;;;;5011530;28;20029;-39
2023/03/06 12:10:06;;;;;;;13.82;2.03;;;;;;;;;;5011480;28;20064;-39
2023/03/06 12:12:42;;;;;;;17.83;1.92;;;;;;;;;;4983551;28;20125;-39
2023/03/06 12:15:09;;;;;;;21.35;2.10;;;;;;;;;;5011491;28;20030;-40
2023/03/06 12:17:45;;;;;;;20.88;2.28;;;;;;;;;;5011263;28;20061;-39
2023/03/06 12:20:27;;;;;;;14.88;2.00;;;;;;;;;;5011364;28;20022;-39
2023/03/06 12:22:55;;;;;;;;;;;;;;;;;;5011744;28;20041;-39
2023/03/06 12:25:26;;;;;;;16.85;2.10;;;;;;;;;;5011180;28;19982;-39
2023/03/06 12:27:53;;;;;;;16.60;2.17;;;;;;;;;;5011281;28;20041;-39
2023/03/06 12:30:26;;;;;;;20.10;1.70;;;;;;;;;;5011270;28;20038;-39
2023/03/06 12:33:17;;;;;;;16.38;2.20;;;;;;;;;;5011193;28;20032;-40
2023/03/06 12:35:50;;;;;;;14.77;1.55;;;;;;;;;;5011269;28;20881;-39
2023/03/06 12:38:37;;;;;;;20.73;2.42;;;;;;;;;;5011184;28;20029;-41
2023/03/06 12:41:07;;;;;;;23.92;2.15;;;;;;;;;;5011051;28;20049;-39
2023/03/06 12:43:34;;;;;;;22.75;2.00;;;;;;;;;;5011209;28;20434;-39
2023/03/06 12:46:09;;;;;;;18.95;2.20;;;;;;;;;;5011095;28;20040;-39
2023/03/06 12:48:37;;;;;;;19.67;2.10;;;;;;;;;;5010144;28;20030;-38
2023/03/06 12:51:06;;;;;;;20.38;2.40;;;;;;;;;;5025695;28;20041;-39
2023/03/06 12:53:34;;;;;;;19.17;2.10;;;;;;;;;;5010920;28;20387;-37
2023/03/06 12:56:02;;;;;;;19.23;2.10;;;;;;;;;;5018119;28;20033;-39
2023/03/06 12:58:29;;;;;;;12.55;1.77;;;;;;;;;;5019138;28;20030;-37
2023/03/06 13:01:03;;;;;;;22.08;1.90;;;;;;;;;;5012511;28;20113;-40
2023/03/06 13:03:56;;;;;;;11.38;1.58;;;;;;;;;;5010806;28;20128;-40
2023/03/06 13:06:33;;;;;;;17.65;2.05;;;;;;;;;;5010979;28;20533;-40
2023/03/06 13:09:00;;;;;;;15.77;2.47;;;;;;;;;;5010666;28;20041;-35
2023/03/06 13:11:30;;;;;;;19.33;2.30;;;;;;;;;;5010532;28;20543;-37
2023/03/06 13:13:57;;;;;;;22.70;2.45;;;;;;;;;;5020174;28;20039;-36
2023/03/06 13:16:29;;;;;;;29.02;2.90;;;;;;;;;;5016599;28;20026;-37
2023/03/06 13:18:56;;;;;;;26.52;2.22;;;;;;;;;;5010854;28;20068;-39
2023/03/06 13:21:43;;;;;;;21.65;2.38;;;;;;;;;;5013102;28;20042;-37
2023/03/06 13:24:18;;;;;;;28.25;2.45;;;;;;;;;;5010575;28;20034;-37
2023/03/06 13:26:45;;;;;;;11.02;1.63;;;;;;;;;;5010795;28;20038;-37
2023/03/06 13:29:37;;;;;;;15.40;2.25;;;;;;;;;;5012937;28;20044;-37
2023/03/06 13:32:06;;;;;;;12.50;1.73;;;;;;;;;;4991299;28;20399;-37
2023/03/06 13:34:33;;;;;;;11.25;2.00;;;;;;;;;;5014234;28;20838;-37
2023/03/06 13:37:18;;;;;;;10.68;2.05;;;;;;;;;;5014208;28;20030;-37
2023/03/06 13:39:55;;;;;;;23.15;2.53;;;;;;;;;;5014157;28;20522;-38
2023/03/06 13:42:33;;;;;;;18.85;2.08;;;;;;;;;;5013847;28;20145;-38
2023/03/06 13:45:07;;;;;;;20.38;2.00;;;;;;;;;;5016892;28;20091;-37
2023/03/06 13:47:52;;;;;;;18.55;1.85;;;;;;;;;;5033937;28;20417;-37
2023/03/06 13:50:32;;;;;;;19.60;2.20;;;;;;;;;;5033574;28;20549;-37
2023/03/06 13:53:05;;;;;;;17.33;2.17;;;;;;;;;;5033505;28;20037;-37
2023/03/06 13:55:41;;;;;;;16.38;1.70;;;;;;;;;;5032812;28;20026;-38
2023/03/06 13:58:08;;;;;;;19.95;1.80;;;;;;;;;;5030088;28;20116;-38
2023/03/06 14:00:47;;;;;;;19.27;1.73;;;;;;;;;;5032106;28;20032;-38
2023/03/06 14:03:32;;;;;;;18.23;1.40;;;;;;;;;;5030587;28;20407;-38
2023/03/06 14:05:59;;;;;;;11.95;1.67;;;;;;;;;;5031554;28;20030;-38
2023/03/06 14:08:28;;;;;;;15.38;1.80;;;;;;;;;;5031888;28;20067;-38
2023/03/06 14:11:07;;;;;;;17.63;1.77;;;;;;;;;;5031885;28;20025;-38
2023/03/06 14:13:48;;;;;;;20.67;1.80;;;;;;;;;;5030634;28;20033;-40
2023/03/06 14:16:26;;;;;;;13.95;1.65;;;;;;;;;;5031030;28;20040;-39
2023/03/06 14:18:56;;;;;;;11.05;1.27;;;;;;;;;;5032444;28;20482;-38
2023/03/06 14:21:29;;;;;;;10.68;1.30;;;;;;;;;;5032955;28;20057;-41
2023/03/06 14:24:00;;;;;;;10.82;1.50;;;;;;;;;;5032994;28;20521;-40
2023/03/06 14:26:28;;;;;;;14.50;1.70;;;;;;;;;;5033000;28;20037;-40
2023/03/06 14:28:57;;;;;;;8.60;1.33;;;;;;;;;;5032250;28;20036;-40
2023/03/06 14:31:42;;;;;;;7.57;1.55;;;;;;;;;;5031669;28;20033;-39
2023/03/06 14:34:21;;;;;;;10.40;1.50;;;;;;;;;;5029937;28;20091;-38
2023/03/06 14:36:49;;;;;;;7.03;1.23;;;;;;;;;;5032342;28;20087;-40
2023/03/06 14:39:19;;;;;;;16.02;1.67;;;;;;;;;;5032228;28;20030;-38
2023/03/06 14:41:46;;;;;;;16.95;1.70;;;;;;;;;;5031878;28;20029;-38
2023/03/06 14:44:21;;;;;;;14.52;1.73;;;;;;;;;;5032108;28;20079;-40
2023/03/06 14:46:53;;;;;;;20.05;2.03;;;;;;;;;;5029801;28;20030;-39